Time;durP1;ratioP1;P1;durP2;ratioP2;P2;SDS_P1;SDS_P2;PMS_P1;PMS_P2;Temp;Humidity;BMP_temperature;BMP_pressure;BME280_temperature;BME280_humidity;BME280_pressure;Samples;Min_cycle;Max_cycle;Signal;HPM_P1;HPM_P2
2022/04/21 00:00:44;;;;;;;15.78;9.43;;;;;;;5.83;68.68;98890.24;1772921;80;21054;-80
2022/04/21 00:03:11;;;;;;;14.68;9.08;;;;;;;5.74;69.58;98898.48;1765873;80;21483;-80
2022/04/21 00:05:38;;;;;;;15.98;9.93;;;;;;;5.74;69.33;98897.20;1766114;80;21042;-78
2022/04/21 00:08:05;;;;;;;15.98;9.38;;;;;;;5.69;69.85;98899.39;1766162;80;20995;-79
2022/04/21 00:10:31;;;;;;;13.50;9.00;;;;;;;5.70;68.73;98899.38;1765152;81;21015;-79
2022/04/21 00:12:58;;;;;;;13.45;8.13;;;;;;;5.69;68.34;98900.27;1765254;80;21074;-79
2022/04/21 00:15:26;;;;;;;14.13;8.48;;;;;;;5.63;71.41;98895.16;1766011;80;21002;-79
2022/04/21 00:17:53;;;;;;;15.10;8.50;;;;;;;5.66;69.87;98901.57;1765771;80;21045;-80
2022/04/21 00:20:20;;;;;;;13.90;7.92;;;;;;;5.67;70.56;98899.43;1765968;81;20962;-80
2022/04/21 00:25:31;;;;;;;16.40;8.33;;;;;;;5.74;70.94;98893.33;1765286;81;21490;-83
2022/04/21 00:27:58;;;;;;;15.60;8.60;;;;;;;5.78;70.32;98898.03;1765017;81;21054;-79
2022/04/21 00:30:25;;;;;;;16.20;9.38;;;;;;;5.81;70.33;98907.46;1765212;81;21534;-80
2022/04/21 00:32:52;;;;;;;14.53;8.95;;;;;;;5.83;71.04;98903.14;1765107;81;20965;-79
2022/04/21 00:37:50;;;;;;;19.05;9.33;;;;;;;5.87;69.43;98900.55;1849047;77;22194;-80
2022/04/21 00:40:20;;;;;;;14.30;8.70;;;;;;;5.82;70.54;98906.61;1826163;77;20990;-81
2022/04/21 00:42:46;;;;;;;14.93;9.25;;;;;;;5.82;68.80;98913.05;1803200;78;21101;-80
2022/04/21 00:45:14;;;;;;;13.85;8.55;;;;;;;5.73;71.00;98903.24;1789384;78;21006;-80
2022/04/21 00:47:43;;;;;;;17.90;10.53;;;;;;;5.70;71.50;98913.57;1815136;79;21494;-80
2022/04/21 00:50:22;;;;;;;13.53;9.43;;;;;;;5.64;71.11;98913.63;1812270;79;21011;-80
2022/04/21 00:52:50;;;;;;;13.90;9.15;;;;;;;5.60;69.16;98914.52;1802002;79;21008;-81
2022/04/21 00:55:17;;;;;;;15.10;8.93;;;;;;;5.55;69.40;98918.84;1824355;78;21035;-80
2022/04/21 00:57:46;;;;;;;17.73;8.98;;;;;;;5.49;70.55;98919.77;1812112;78;21007;-80
2022/04/21 01:00:14;;;;;;;14.73;8.53;;;;;;;5.44;70.43;98912.93;1806533;78;21010;-80
2022/04/21 01:02:52;;;;;;;16.52;8.23;;;;;;;5.42;70.36;98909.51;1814788;77;21015;-81
2022/04/21 01:05:25;;;;;;;14.85;8.13;;;;;;;5.38;71.61;98906.94;1801734;77;20976;-80
2022/04/21 01:07:49;;;;;;;13.75;8.45;;;;;;;5.37;71.75;98906.53;1822436;78;21030;-80
2022/04/21 01:10:15;;;;;;;13.93;8.55;;;;;;;5.38;71.95;98907.38;1824335;77;21515;-79
2022/04/21 01:12:43;;;;;;;17.70;9.13;;;;;;;5.36;70.96;98909.96;1773724;80;20991;-80
2022/04/21 01:15:10;;;;;;;15.03;9.90;;;;;;;5.36;71.67;98908.67;1783277;79;21008;-80
2022/04/21 01:17:39;;;;;;;17.17;9.65;;;;;;;5.36;72.62;98906.53;1792140;77;20999;-80
2022/04/21 01:20:10;;;;;;;18.48;9.90;;;;;;;5.36;72.06;98903.52;1814836;77;21091;-80
2022/04/21 01:22:37;;;;;;;13.45;8.90;;;;;;;5.32;72.14;98908.72;1791156;77;21075;-80
2022/04/21 01:25:05;;;;;;;15.70;9.40;;;;;;;5.31;73.87;98914.72;1813686;77;21039;-80
2022/04/21 01:27:33;;;;;;;20.70;10.60;;;;;;;5.29;71.59;98914.76;1805277;79;21038;-81
2022/04/21 01:30:02;;;;;;;13.62;8.83;;;;;;;5.25;70.09;98910.48;1823765;77;20999;-81
2022/04/21 01:32:29;;;;;;;14.63;8.55;;;;;;;5.20;71.55;98907.08;1791892;79;21012;-80
2022/04/21 01:34:55;;;;;;;15.03;9.15;;;;;;;5.16;71.71;98907.52;1812982;79;21027;-80
2022/04/21 01:42:54;;;;;;;17.32;10.10;;;;;;;4.97;70.07;98911.94;1797647;79;21532;-81
2022/04/21 01:45:20;;;;;;;16.07;11.12;;;;;;;4.90;71.99;98907.67;1792318;77;21047;-80
2022/04/21 01:47:47;;;;;;;14.07;9.40;;;;;;;4.88;71.36;98907.27;1783535;78;21071;-83
2022/04/21 01:50:14;;;;;;;14.23;8.50;;;;;;;4.84;71.10;98907.70;1805265;79;21004;-80
2022/04/21 01:52:41;;;;;;;19.32;9.95;;;;;;;4.83;69.79;98911.57;1793669;77;21032;-80
2022/04/21 01:55:08;;;;;;;18.57;10.25;;;;;;;4.80;70.52;98908.59;1807482;77;20987;-81
2022/04/21 01:57:35;;;;;;;17.48;9.73;;;;;;;4.78;71.15;98910.31;1838273;77;21504;-80
2022/04/21 02:00:02;;;;;;;16.62;9.73;;;;;;;4.78;70.85;98906.02;1784288;79;20985;-80
2022/04/21 02:02:32;;;;;;;16.80;9.55;;;;;;;4.79;73.00;98903.00;1805909;79;21044;-80
2022/04/21 02:05:02;;;;;;;16.65;9.28;;;;;;;4.79;72.23;98896.56;1796876;79;20977;-80
2022/04/21 02:07:29;;;;;;;17.40;9.50;;;;;;;4.81;71.10;98906.42;1816056;78;21025;-81
2022/04/21 02:09:56;;;;;;;19.77;9.85;;;;;;;4.82;71.95;98904.28;1815995;79;20964;-79
2022/04/21 02:12:24;;;;;;;22.27;10.58;;;;;;;4.81;72.96;98899.13;1800436;79;21024;-79
2022/04/21 02:14:51;;;;;;;17.67;10.48;;;;;;;4.85;72.54;98903.41;1783427;79;20964;-82
2022/04/21 02:17:19;;;;;;;18.80;9.93;;;;;;;4.85;74.66;98902.97;1783139;79;21520;-79
2022/04/21 02:19:46;;;;;;;17.45;10.43;;;;;;;4.86;74.14;98899.98;1783328;77;21098;-79
2022/04/21 02:22:13;;;;;;;15.90;10.20;;;;;;;4.85;72.79;98901.67;1806015;79;21043;-80
2022/04/21 02:24:40;;;;;;;22.58;10.70;;;;;;;4.83;73.90;98903.41;1784359;78;21039;-80
2022/04/21 02:27:06;;;;;;;18.82;10.80;;;;;;;4.83;74.58;98905.13;1806896;79;21020;-80
2022/04/21 02:29:33;;;;;;;17.80;10.40;;;;;;;4.82;72.01;98903.44;1784372;79;21024;-80
2022/04/21 02:32:01;;;;;;;17.17;10.55;;;;;;;4.77;73.25;98904.72;1784342;78;21027;-80
2022/04/21 02:34:29;;;;;;;16.57;9.43;;;;;;;4.74;73.47;98900.89;1799324;79;20941;-81
2022/04/21 02:36:57;;;;;;;20.75;11.10;;;;;;;4.70;72.66;98902.63;1820553;77;21610;-78
2022/04/21 02:39:27;;;;;;;21.87;10.23;;;;;;;4.67;74.41;98897.91;1812752;77;21095;-80
2022/04/21 02:41:54;;;;;;;16.77;9.70;;;;;;;4.66;74.53;98894.92;1832975;77;21501;-80
2022/04/21 02:44:20;;;;;;;16.05;9.88;;;;;;;4.66;71.80;98897.50;1822476;77;20996;-80
2022/04/21 02:46:47;;;;;;;16.02;10.28;;;;;;;4.62;75.93;98895.36;1820632;77;21008;-80
2022/04/21 02:49:15;;;;;;;16.93;9.60;;;;;;;4.63;75.37;98897.50;1832352;78;21098;-81
2022/04/21 02:51:43;;;;;;;18.98;9.48;;;;;;;4.65;74.75;98899.20;1832929;78;20991;-80
2022/04/21 02:59:41;;;;;;;16.45;10.30;;;;;;;4.72;75.20;98894.45;1825350;77;21042;-79
2022/04/21 03:02:07;;;;;;;19.35;10.75;;;;;;;4.75;75.22;98905.16;1832546;78;21022;-80
2022/04/21 03:04:34;;;;;;;17.70;10.85;;;;;;;4.76;74.91;98899.17;1832898;78;21054;-80
2022/04/21 03:07:01;;;;;;;19.35;10.48;;;;;;;4.78;74.74;98900.86;1832814;78;20994;-80
2022/04/21 03:09:27;;;;;;;20.23;10.95;;;;;;;4.77;75.04;98899.58;1832836;78;21611;-80
2022/04/21 03:11:54;;;;;;;16.40;10.28;;;;;;;4.75;75.58;98893.58;1832693;78;20991;-80
2022/04/21 03:14:21;;;;;;;18.32;10.23;;;;;;;4.74;74.87;98899.17;1832992;77;20964;-79
2022/04/21 03:16:47;;;;;;;18.52;10.13;;;;;;;4.74;73.17;98900.89;1803704;78;21435;-80
2022/04/21 03:19:14;;;;;;;16.57;10.32;;;;;;;4.71;74.55;98903.47;1816473;77;21071;-81
2022/04/21 03:24:25;;;;;;;17.75;10.32;;;;;;;4.64;74.66;98897.94;1831932;77;20972;-79
2022/04/21 03:26:53;;;;;;;17.50;10.15;;;;;;;4.62;74.91;98904.81;1831101;77;21495;-79
2022/04/21 03:29:21;;;;;;;19.25;10.35;;;;;;;4.57;75.38;98909.52;1829202;78;21055;-81
2022/04/21 03:31:51;;;;;;;17.55;11.05;;;;;;;4.57;74.56;98907.39;1832688;77;21045;-80
2022/04/21 03:34:20;;;;;;;18.27;10.35;;;;;;;4.56;75.89;98899.25;1833096;77;21023;-80
2022/04/21 03:36:49;;;;;;;18.70;10.40;;;;;;;4.56;76.17;98900.55;1827501;78;21070;-79
2022/04/21 03:39:20;;;;;;;17.10;10.03;;;;;;;4.56;75.75;98908.27;1816568;79;21010;-78
2022/04/21 03:41:53;;;;;;;17.55;9.30;;;;;;;4.56;75.86;98900.10;1776126;80;21013;-80
2022/04/21 03:44:23;;;;;;;17.10;10.68;;;;;;;4.56;75.82;98886.38;1799425;79;21508;-80
2022/04/21 03:46:50;;;;;;;22.58;11.33;;;;;;;4.58;75.48;98894.95;1799327;78;21012;-80
2022/04/21 03:49:16;;;;;;;18.73;11.73;;;;;;;4.55;76.47;98898.38;1766822;81;20996;-80
2022/04/21 03:51:43;;;;;;;20.10;10.95;;;;;;;4.55;75.39;98891.09;1785110;79;20944;-80
2022/04/21 03:54:10;;;;;;;24.30;11.65;;;;;;;4.52;76.81;98896.27;1799132;78;20999;-79
2022/04/21 03:56:37;;;;;;;20.97;11.73;;;;;;;4.50;77.48;98897.55;1769835;81;21651;-80
2022/04/21 03:59:04;;;;;;;20.25;12.13;;;;;;;4.52;74.63;98901.42;1799830;80;21523;-80
2022/04/21 04:01:30;;;;;;;17.98;10.90;;;;;;;4.51;74.68;98897.96;1786716;78;20956;-80
2022/04/21 04:03:58;;;;;;;19.98;10.65;;;;;;;4.50;76.97;98900.12;1789848;78;21030;-81
2022/04/21 04:11:55;;;;;;;22.22;11.85;;;;;;;4.51;75.27;98900.54;1784144;79;21513;-78
2022/04/21 04:14:21;;;;;;;22.25;11.60;;;;;;;4.53;76.59;98899.25;1801983;79;20994;-80
2022/04/21 04:16:48;;;;;;;18.92;10.75;;;;;;;4.56;76.08;98898.81;1817440;79;21006;-77
2022/04/21 04:19:15;;;;;;;24.23;11.55;;;;;;;4.61;76.32;98896.21;1792863;78;20992;-79
2022/04/21 04:21:42;;;;;;;20.62;11.15;;;;;;;4.64;76.04;98903.09;1792250;78;21007;-79
2022/04/21 04:24:08;;;;;;;23.73;11.90;;;;;;;4.69;75.78;98896.19;1764692;81;21491;-79
2022/04/21 04:26:35;;;;;;;20.92;11.68;;;;;;;4.73;75.99;98900.02;1804616;79;21010;-80
2022/04/21 04:29:03;;;;;;;24.63;11.18;;;;;;;4.80;76.21;98897.44;1816448;79;21028;-80
2022/04/21 04:31:33;;;;;;;26.70;12.47;;;;;;;4.84;75.91;98899.98;1817605;79;21575;-80
2022/04/21 04:34:00;;;;;;;22.75;12.23;;;;;;;4.88;74.82;98900.38;1777796;78;21011;-81
2022/04/21 04:36:28;;;;;;;24.72;12.03;;;;;;;4.93;74.18;98891.33;1814558;78;21614;-79
2022/04/21 04:38:54;;;;;;;19.98;11.83;;;;;;;4.91;75.98;98888.76;1793910;79;21038;-79
2022/04/21 04:44:06;;;;;;;21.23;10.95;;;;;;;4.93;74.18;98884.48;1798395;78;21004;-80
2022/04/21 04:46:36;;;;;;;20.50;10.88;;;;;;;4.93;73.91;98881.91;1823590;78;20996;-80
2022/04/21 04:49:09;;;;;;;19.92;10.65;;;;;;;4.95;75.14;98878.02;1818588;78;21022;-80
2022/04/21 04:51:41;;;;;;;23.95;11.10;;;;;;;4.95;74.76;98886.63;1807811;78;21024;-80
2022/04/21 04:54:10;;;;;;;24.40;12.50;;;;;;;4.96;74.96;98876.72;1795262;78;21038;-81
2022/04/21 04:56:39;;;;;;;25.65;11.57;;;;;;;5.00;73.82;98871.56;1814573;78;21137;-80
2022/04/21 04:59:06;;;;;;;21.07;10.55;;;;;;;5.04;74.37;98873.25;1824537;78;21035;-80
2022/04/21 05:01:42;;;;;;;18.05;10.20;;;;;;;5.08;74.24;98877.52;1791721;79;21135;-82
2022/04/21 05:04:12;;;;;;;21.85;10.70;;;;;;;5.12;74.16;98870.19;1829430;77;21086;-80
2022/04/21 05:06:51;;;;;;;25.37;12.50;;;;;;;5.14;74.38;98869.30;1824100;78;21043;-81
2022/04/21 05:09:21;;;;;;;20.32;11.25;;;;;;;5.19;74.42;98864.11;1800881;79;21057;-81
2022/04/21 05:11:51;;;;;;;18.32;11.28;;;;;;;5.21;74.41;98867.53;1800888;78;21526;-81
2022/04/21 05:14:19;;;;;;;21.00;11.57;;;;;;;5.20;74.40;98864.55;1822850;79;21069;-79
2022/04/21 05:16:47;;;;;;;23.20;11.83;;;;;;;5.20;74.68;98855.53;1801000;78;21008;-80
2022/04/21 05:19:16;;;;;;;20.37;11.95;;;;;;;5.24;73.25;98860.23;1833316;78;20976;-81
2022/04/21 05:21:45;;;;;;;18.05;10.45;;;;;;;5.27;73.16;98855.03;1803985;78;21026;-81
2022/04/21 05:24:13;;;;;;;19.12;11.78;;;;;;;5.30;73.57;98858.89;1835408;78;21055;-81
2022/04/21 05:26:42;;;;;;;24.43;12.75;;;;;;;5.32;74.32;98846.41;1830087;78;21483;-80
2022/04/21 05:31:58;;;;;;;21.75;11.40;;;;;;;5.53;73.06;98854.83;1791727;79;21600;-80
2022/04/21 05:34:26;;;;;;;20.95;10.45;;;;;;;5.65;73.38;98845.72;1821231;78;20995;-80
2022/04/21 05:36:54;;;;;;;18.48;10.53;;;;;;;5.81;74.42;98842.55;1803660;77;22170;-79
2022/04/21 05:39:22;;;;;;;21.25;10.35;;;;;;;5.96;73.81;98848.02;1822277;78;21199;-79
2022/04/21 05:41:51;;;;;;;22.58;10.50;;;;;;;6.15;73.42;98844.37;1802441;77;21018;-80
2022/04/21 05:44:19;;;;;;;24.50;11.00;;;;;;;6.29;73.12;98840.78;1802693;78;20998;-80
2022/04/21 05:46:47;;;;;;;36.90;11.75;;;;;;;6.43;72.80;98848.36;1802534;78;21453;-81
2022/04/21 05:49:14;;;;;;;19.32;10.72;;;;;;;6.56;72.10;98843.02;1802441;76;21030;-80
2022/04/21 05:51:42;;;;;;;18.70;11.08;;;;;;;6.71;71.47;98841.11;1802258;78;21171;-81
2022/04/21 05:54:09;;;;;;;20.45;10.65;;;;;;;6.80;71.00;98840.95;1830663;78;21177;-81
2022/04/21 05:56:37;;;;;;;22.70;11.03;;;;;;;6.89;70.70;98843.42;1831959;77;21513;-81
2022/04/21 05:59:03;;;;;;;19.45;10.82;;;;;;;7.00;70.18;98833.37;1859038;77;20974;-80
2022/04/21 06:01:31;;;;;;;23.10;10.03;;;;;;;7.07;69.86;98850.06;1845666;77;21043;-80
2022/04/21 06:03:58;;;;;;;17.17;10.68;;;;;;;7.10;69.33;98842.69;1842048;77;21001;-79
2022/04/21 06:06:24;;;;;;;18.17;9.60;;;;;;;7.13;69.14;98849.12;1823208;76;21063;-81
2022/04/21 06:08:51;;;;;;;15.63;8.98;;;;;;;7.20;69.01;98850.71;1826295;76;21183;-81
2022/04/21 06:11:18;;;;;;;19.95;9.93;;;;;;;7.27;69.04;98840.70;1833558;76;21551;-80
2022/04/21 06:13:45;;;;;;;19.45;10.05;;;;;;;7.35;69.28;98844.46;1831193;76;20989;-79
2022/04/21 06:16:12;;;;;;;20.27;11.10;;;;;;;7.49;69.17;98847.67;1824215;76;21776;-81
2022/04/21 06:18:39;;;;;;;19.65;10.50;;;;;;;7.62;69.22;98848.75;1795472;78;21034;-79
2022/04/21 06:21:09;;;;;;;19.52;11.05;;;;;;;7.71;68.49;98847.31;1796388;78;21558;-81
2022/04/21 06:23:36;;;;;;;19.40;11.08;;;;;;;7.80;68.02;98852.75;1840548;76;20978;-82
2022/04/21 06:26:04;;;;;;;20.10;11.53;;;;;;;7.90;67.81;98853.03;1834966;76;21026;-82
2022/04/21 06:28:31;;;;;;;19.70;11.50;;;;;;;7.97;67.41;98856.75;1805628;78;21042;-83
2022/04/21 06:30:58;;;;;;;22.00;10.80;;;;;;;8.11;67.08;98856.48;1841220;76;22095;-85
2022/04/21 06:33:25;;;;;;;17.77;11.30;;;;;;;8.22;66.83;98858.89;1803943;78;21036;-86
2022/04/21 06:35:51;;;;;;;20.43;11.95;;;;;;;8.37;66.38;98855.13;1527904;77;10000568;-83
2022/04/21 06:38:18;;;;;;;23.92;12.53;;;;;;;8.49;65.81;98865.28;1699218;82;21003;-87
2022/04/21 06:40:44;;;;;;;19.48;11.97;;;;;;;8.64;65.25;98867.16;1667556;86;21639;-80
2022/04/21 06:48:43;;;;;;;18.20;10.18;;;;;;;9.00;63.59;98867.26;1648952;85;21586;-78
2022/04/21 06:51:10;;;;;;;21.33;10.93;;;;;;;9.14;62.95;98857.41;1643159;86;21062;-80
2022/04/21 06:53:36;;;;;;;23.57;11.60;;;;;;;9.26;63.10;98857.13;1688502;84;21068;-84
2022/04/21 06:56:04;;;;;;;17.05;11.22;;;;;;;9.39;62.40;98858.13;1719518;83;21109;-83
2022/04/21 06:58:31;;;;;;;18.73;10.93;;;;;;;9.42;61.72;98848.98;1684764;84;21014;-82
2022/04/21 07:00:58;;;;;;;24.00;11.83;;;;;;;9.50;61.69;98844.00;1715365;83;21555;-86
2022/04/21 07:03:26;;;;;;;19.60;11.48;;;;;;;9.57;61.10;98847.31;1690308;84;21344;-81
2022/04/21 07:05:55;;;;;;;20.88;11.73;;;;;;;9.60;60.92;98845.92;1690878;84;21092;-80
2022/04/21 07:08:22;;;;;;;21.07;11.83;;;;;;;9.71;60.66;98849.56;1709646;83;21016;-80
2022/04/21 07:10:49;;;;;;;20.30;11.50;;;;;;;9.79;60.05;98850.64;1658422;85;21106;-82
2022/04/21 07:13:16;;;;;;;16.80;10.55;;;;;;;9.87;60.66;98856.52;1646163;83;21198;-86
2022/04/21 07:15:42;;;;;;;20.02;11.12;;;;;;;9.94;60.39;98845.90;1667557;84;21098;-82
2022/04/21 07:18:11;;;;;;;18.75;10.88;;;;;;;10.02;60.43;98839.66;1680610;84;21034;-83
2022/04/21 07:20:38;;;;;;;21.50;11.22;;;;;;;10.07;59.71;98842.55;1639250;83;21054;-83
2022/04/21 07:23:05;;;;;;;18.35;10.18;;;;;;;10.16;59.63;98844.88;1646109;86;20976;-81
2022/04/21 07:25:33;;;;;;;17.15;10.95;;;;;;;10.24;59.03;98832.12;1644658;86;21079;-81
2022/04/21 07:27:59;;;;;;;16.50;10.10;;;;;;;10.34;58.49;98834.91;1643905;86;21039;-81
2022/04/21 07:30:26;;;;;;;20.37;10.70;;;;;;;10.44;59.19;98835.50;1645883;86;21103;-83
2022/04/21 07:32:52;;;;;;;20.43;10.48;;;;;;;10.59;58.63;98839.41;1645309;86;21080;-80
2022/04/21 07:35:19;;;;;;;17.65;11.08;;;;;;;10.73;58.44;98843.75;1645561;86;21088;-81
2022/04/21 07:37:46;;;;;;;17.02;10.28;;;;;;;10.85;57.39;98842.08;1670618;84;21043;-80
2022/04/21 07:40:13;;;;;;;17.52;10.32;;;;;;;10.95;57.18;98838.30;1668171;84;21043;-81
2022/04/21 07:42:40;;;;;;;16.05;10.43;;;;;;;11.07;56.37;98837.52;1673529;84;21385;-80
2022/04/21 07:45:07;;;;;;;16.48;10.03;;;;;;;11.16;56.23;98841.16;1680176;84;21170;-82
2022/04/21 07:47:34;;;;;;;16.20;9.10;;;;;;;11.24;54.85;98835.67;1676143;84;20991;-82
2022/04/21 07:50:01;;;;;;;14.10;9.10;;;;;;;11.33;55.48;98832.33;1645936;86;20983;-84
2022/04/21 07:55:23;;;;;;;15.35;8.40;;;;;;;11.49;52.62;98823.57;1670495;86;21033;-78
2022/04/21 07:57:52;;;;;;;16.07;8.60;;;;;;;11.65;51.22;98828.27;1674764;84;21106;-81
2022/04/21 08:00:19;;;;;;;15.55;7.97;;;;;;;11.77;52.24;98820.50;1676969;84;21058;-83
2022/04/21 08:02:48;;;;;;;17.65;8.23;;;;;;;11.84;49.87;98819.40;1668489;84;21045;-80
2022/04/21 08:05:18;;;;;;;12.10;7.42;;;;;;;11.90;51.02;98816.61;1671316;84;21039;-83
2022/04/21 08:07:46;;;;;;;11.55;7.35;;;;;;;12.04;50.71;98814.36;1670229;86;21103;-83
2022/04/21 08:10:13;;;;;;;13.25;7.28;;;;;;;12.15;51.23;98813.97;1669553;84;20991;-82
2022/04/21 08:12:47;;;;;;;12.47;7.30;;;;;;;12.25;49.66;98819.23;1664292;85;21075;-86
2022/04/21 08:15:27;;;;;;;11.03;6.75;;;;;;;12.36;48.96;98816.72;1671208;82;21042;-83
2022/04/21 08:17:57;;;;;;;11.18;6.95;;;;;;;12.42;48.85;98809.51;1661114;86;21036;-83
2022/04/21 08:20:27;;;;;;;12.15;6.97;;;;;;;12.49;47.71;98815.33;1639456;84;21127;-89
2022/04/21 08:22:53;;;;;;;10.28;6.53;;;;;;;12.61;46.49;98811.42;1646408;83;21065;-85
2022/04/21 08:33:37;;;;;;;11.35;6.42;;;;;;;13.14;45.32;98813.24;1648147;86;21091;-82
2022/04/21 08:36:05;;;;;;;12.53;6.67;;;;;;;13.26;45.23;98817.58;1622986;86;21106;-82
2022/04/21 08:38:33;;;;;;;10.08;5.92;;;;;;;13.31;44.16;98824.36;1626925;86;21055;-86
2022/04/21 08:41:10;;;;;;;10.30;7.03;;;;;;;13.44;43.44;98817.32;1617221;87;21034;-87
2022/04/21 08:43:36;;;;;;;12.90;6.28;;;;;;;13.44;43.90;98816.02;1631402;88;21276;-89
2022/04/21 08:46:05;;;;;;;10.80;5.80;;;;;;;13.57;43.02;98819.83;1629363;86;21048;-86
2022/04/21 08:48:34;;;;;;;12.30;5.92;;;;;;;13.64;43.58;98817.33;1617556;89;21006;-84
2022/04/21 08:51:02;;;;;;;11.85;6.53;;;;;;;13.76;43.02;98815.12;1631616;88;21034;-84
2022/04/21 08:53:30;;;;;;;9.58;5.87;;;;;;;13.91;43.63;98803.56;1636122;87;21238;-86
2022/04/21 08:55:58;;;;;;;10.30;5.45;;;;;;;14.03;41.06;98802.17;1647097;86;21023;-84
2022/04/21 08:58:24;;;;;;;8.88;5.08;;;;;;;14.05;41.39;98800.34;1615853;86;21307;-85
2022/04/21 09:00:54;;;;;;;9.98;5.75;;;;;;;14.12;40.98;98797.86;1625145;86;20976;-87
2022/04/21 09:03:20;;;;;;;9.53;5.17;;;;;;;14.20;40.71;98788.34;1621341;88;21365;-85
2022/04/21 09:05:46;;;;;;;7.75;5.00;;;;;;;14.36;39.99;98785.05;1624424;87;21063;-86
2022/04/21 09:08:22;;;;;;;12.05;5.17;;;;;;;14.49;40.10;98787.03;1634257;86;21088;-86
2022/04/21 09:11:08;;;;;;;8.45;5.33;;;;;;;14.61;40.48;98787.42;1625827;86;21038;-86
2022/04/21 09:13:41;;;;;;;7.55;4.37;;;;;;;14.75;39.18;98781.55;1616146;89;21038;-86
2022/04/21 09:16:10;;;;;;;8.30;4.45;;;;;;;14.59;36.32;98788.80;1621991;88;21572;-85
2022/04/21 09:18:40;;;;;;;8.98;4.65;;;;;;;14.60;38.38;98783.94;1619225;89;21052;-87
2022/04/21 09:21:15;;;;;;;7.53;4.35;;;;;;;14.69;36.58;98783.98;1612460;89;21143;-88
2022/04/21 09:23:44;;;;;;;6.62;4.20;;;;;;;14.74;37.23;98781.98;1641729;86;20992;-87
2022/04/21 09:26:20;;;;;;;8.35;4.00;;;;;;;14.79;37.30;98777.40;1633606;86;21302;-86
2022/04/21 09:28:57;;;;;;;7.72;3.90;;;;;;;14.85;34.79;98777.10;1633539;85;21040;-87
2022/04/21 09:31:28;;;;;;;6.70;3.87;;;;;;;15.03;36.40;98775.84;1677294;82;21109;-86
2022/04/21 09:33:56;;;;;;;10.65;4.12;;;;;;;15.15;35.72;98777.86;1726741;80;21103;-88
2022/04/21 09:36:23;;;;;;;7.60;4.05;;;;;;;15.13;35.63;98775.78;1722998;81;21121;-84
2022/04/21 09:39:01;;;;;;;8.50;4.35;;;;;;;15.06;34.29;98769.13;1716508;82;21044;-90
2022/04/21 09:41:30;;;;;;;6.28;3.50;;;;;;;14.98;32.34;98784.36;1721934;82;21034;-87
2022/04/21 09:46:07;;;;;;;6.10;3.65;;;;;;;14.89;32.89;98774.72;1732571;83;21031;-86
2022/04/21 09:46:37;;;;;;;5.85;3.72;;;;;;;14.91;32.19;98772.88;1719531;81;21047;-80
2022/04/21 09:49:03;;;;;;;5.20;3.77;;;;;;;14.97;33.24;98770.44;1714471;82;21475;-80
2022/04/21 09:51:30;;;;;;;7.78;3.30;;;;;;;15.07;33.09;98768.22;1720918;82;21051;-80
2022/04/21 09:54:04;;;;;;;7.15;3.25;;;;;;;15.22;32.86;98767.92;1732110;82;21019;-79
2022/04/21 09:56:44;;;;;;;6.10;3.42;;;;;;;15.38;30.28;98764.08;1655734;86;21142;-80
2022/04/21 09:59:13;;;;;;;6.37;3.02;;;;;;;15.37;29.17;98757.16;1691376;84;21669;-82
2022/04/21 10:01:42;;;;;;;6.75;3.30;;;;;;;15.48;29.68;98756.17;1697030;84;21030;-80
2022/04/21 10:04:12;;;;;;;5.83;3.10;;;;;;;15.31;29.54;98757.00;1721911;83;21847;-79
2022/04/21 10:06:40;;;;;;;6.72;3.52;;;;;;;15.37;28.61;98762.40;1676942;84;21087;-80
2022/04/21 10:09:09;;;;;;;7.85;3.60;;;;;;;15.29;29.32;98757.07;1703889;83;21074;-80
2022/04/21 10:11:44;;;;;;;6.85;3.75;;;;;;;15.35;29.18;98752.46;1697160;84;21654;-80
2022/04/21 10:14:13;;;;;;;6.78;4.22;;;;;;;15.39;29.94;98750.91;1730357;83;21521;-81
2022/04/21 10:16:42;;;;;;;10.15;4.45;;;;;;;15.52;32.33;98757.70;1709237;83;21065;-80
2022/04/21 10:19:12;;;;;;;6.62;4.28;;;;;;;15.69;32.30;98743.25;1714897;83;21498;-80
2022/04/21 10:21:55;;;;;;;7.62;4.17;;;;;;;15.86;32.66;98755.53;1711624;83;21019;-79
2022/04/21 10:24:23;;;;;;;5.53;3.65;;;;;;;15.87;32.21;98744.11;1715729;83;21061;-80
2022/04/21 10:26:50;;;;;;;8.13;4.30;;;;;;;15.97;32.21;98741.85;1721558;83;20984;-80
2022/04/21 10:29:23;;;;;;;7.53;3.85;;;;;;;16.00;32.25;98748.26;1716502;83;21026;-81
2022/04/21 10:32:03;;;;;;;5.70;3.50;;;;;;;16.14;31.97;98742.28;1727885;83;21110;-80
2022/04/21 10:34:40;;;;;;;5.60;3.87;;;;;;;16.19;31.27;98749.42;1730447;83;21104;-80
2022/04/21 10:37:15;;;;;;;6.15;3.65;;;;;;;16.25;31.26;98741.69;1725731;83;21086;-81
2022/04/21 10:40:14;;;;;;;6.05;3.45;;;;;;;16.24;31.80;98737.39;1715382;83;21020;-79
2022/04/21 10:42:57;;;;;;;6.75;3.47;;;;;;;16.51;31.95;98745.52;1704628;83;21058;-80
2022/04/21 10:45:28;;;;;;;6.08;3.60;;;;;;;16.48;30.25;98735.20;1727480;83;20986;-81
2022/04/21 10:48:12;;;;;;;7.08;3.45;;;;;;;16.52;31.13;98730.64;1725051;83;21055;-80
2022/04/21 10:50:41;;;;;;;5.85;3.55;;;;;;;16.73;30.82;98730.73;1727409;83;21030;-80
2022/04/21 10:58:47;;;;;;;7.03;3.90;;;;;;;16.77;29.94;98734.91;1726947;82;21134;-81
2022/04/21 11:01:28;;;;;;;5.33;3.72;;;;;;;16.92;30.84;98732.38;1704071;83;21511;-79
2022/04/21 11:04:14;;;;;;;5.22;3.62;;;;;;;16.95;29.96;98728.24;1653696;86;21044;-79
2022/04/21 11:06:49;;;;;;;12.82;6.40;;;;;;;17.04;29.99;98727.25;1716328;83;21060;-81
2022/04/21 11:09:40;;;;;;;9.73;4.45;;;;;;;17.00;30.56;98727.05;1723350;83;21070;-81
2022/04/21 11:12:10;;;;;;;8.28;4.50;;;;;;;17.08;30.67;98729.24;1697183;84;21027;-80
2022/04/21 11:14:39;;;;;;;7.45;4.50;;;;;;;17.11;30.93;98721.20;1697494;84;21030;-79
2022/04/21 11:17:07;;;;;;;8.65;4.53;;;;;;;17.26;31.19;98717.66;1688594;84;21511;-81
2022/04/21 11:19:40;;;;;;;8.35;3.80;;;;;;;17.35;30.34;98713.66;1652027;86;21064;-81
2022/04/21 11:22:09;;;;;;;5.85;3.65;;;;;;;17.59;30.22;98707.41;1716498;83;21018;-80
2022/04/21 11:25:05;;;;;;;7.60;3.40;;;;;;;17.59;29.83;98714.47;1675983;84;21077;-81
2022/04/21 11:27:31;;;;;;;6.05;3.55;;;;;;;17.68;29.52;98709.47;1725847;83;21652;-79
2022/04/21 11:30:06;;;;;;;6.53;3.65;;;;;;;17.86;27.79;98715.91;1726514;83;21007;-79
2022/04/21 11:32:33;;;;;;;9.50;3.90;;;;;;;17.93;28.75;98705.87;1717243;83;20996;-82
2022/04/21 11:35:10;;;;;;;8.13;4.15;;;;;;;17.96;28.58;98701.24;1721800;83;21546;-80
2022/04/21 11:37:58;;;;;;;6.62;3.20;;;;;;;18.13;28.44;98696.27;1647602;86;21047;-81
2022/04/21 11:40:37;;;;;;;17.23;4.42;;;;;;;18.31;28.34;98683.74;1657077;86;21042;-81
2022/04/21 11:43:13;;;;;;;8.48;3.77;;;;;;;18.39;28.50;98685.41;1676168;86;21030;-79
2022/04/21 11:45:41;;;;;;;5.87;3.67;;;;;;;18.68;26.83;98694.53;1646649;86;20999;-81
2022/04/21 11:48:15;;;;;;;6.95;3.80;;;;;;;18.81;27.13;98691.52;1674406;86;21079;-81
2022/04/21 11:50:46;;;;;;;5.60;3.50;;;;;;;18.93;27.40;98687.71;1668370;86;21060;-80
2022/04/21 11:53:21;;;;;;;7.83;3.22;;;;;;;19.20;27.45;98681.92;1648794;86;21043;-81
2022/04/21 11:55:50;;;;;;;6.22;3.10;;;;;;;19.17;25.66;98675.53;1667298;86;21020;-80
2022/04/21 11:58:35;;;;;;;4.83;2.90;;;;;;;19.19;25.61;98674.95;1661346;86;21082;-83
2022/04/21 12:06:50;;;;;;;7.05;2.92;;;;;;;19.78;25.06;98673.66;1711696;83;21043;-81
2022/04/21 12:09:20;;;;;;;5.50;3.17;;;;;;;19.56;25.98;98675.58;1709359;84;21017;-81
2022/04/21 12:11:54;;;;;;;4.92;3.08;;;;;;;19.70;24.71;98653.53;1710141;84;21063;-80
2022/04/21 12:14:22;;;;;;;7.90;3.42;;;;;;;19.85;25.42;98666.50;1712531;83;21067;-81
2022/04/21 12:16:56;;;;;;;7.95;3.27;;;;;;;19.99;25.67;98664.20;1712267;83;21503;-81
2022/04/21 12:19:37;;;;;;;7.08;3.00;;;;;;;20.22;24.36;98670.98;1714346;83;21011;-81
2022/04/21 12:22:13;;;;;;;8.28;3.40;;;;;;;20.31;24.33;98662.38;1713254;83;21511;-82
2022/04/21 12:24:43;;;;;;;6.08;3.30;;;;;;;20.07;24.62;98666.30;1714311;83;21048;-81
2022/04/21 12:27:22;;;;;;;5.90;3.02;;;;;;;19.68;24.19;98662.38;1711703;83;20999;-81
2022/04/21 12:30:06;;;;;;;5.25;2.85;;;;;;;19.68;25.75;98661.55;1711673;83;21001;-82
2022/04/21 12:32:38;;;;;;;7.05;3.20;;;;;;;19.89;25.57;98664.49;1704146;83;21116;-82
2022/04/21 12:35:08;;;;;;;5.85;3.10;;;;;;;20.27;25.14;98663.56;1692141;83;21063;-82
2022/04/21 12:37:38;;;;;;;5.42;3.47;;;;;;;20.15;25.03;98668.41;1719329;83;21043;-83